sensor_id;sensor_type;location;lat;lon;timestamp;temperature;humidity
12819;DHT22;6474;53.474;9.894;2023-02-05T00:01:46;-0.10;90.60
12819;DHT22;6474;53.474;9.894;2023-02-05T00:04:14;0.00;90.70
12819;DHT22;6474;53.474;9.894;2023-02-05T00:06:42;0.00;90.70
12819;DHT22;6474;53.474;9.894;2023-02-05T00:09:10;-0.10;90.70
12819;DHT22;6474;53.474;9.894;2023-02-05T00:11:39;-0.10;90.70
12819;DHT22;6474;53.474;9.894;2023-02-05T00:14:07;-0.10;90.70
12819;DHT22;6474;53.474;9.894;2023-02-05T00:16:36;-0.10;90.80
12819;DHT22;6474;53.474;9.894;2023-02-05T00:19:04;0.00;90.80
12819;DHT22;6474;53.474;9.894;2023-02-05T00:21:32;0.00;90.80
12819;DHT22;6474;53.474;9.894;2023-02-05T00:24:00;-0.10;90.80
12819;DHT22;6474;53.474;9.894;2023-02-05T00:26:28;0.00;90.80
12819;DHT22;6474;53.474;9.894;2023-02-05T00:28:57;0.00;90.80
12819;DHT22;6474;53.474;9.894;2023-02-05T00:31:25;0.00;90.80
12819;DHT22;6474;53.474;9.894;2023-02-05T00:33:54;0.00;90.80
12819;DHT22;6474;53.474;9.894;2023-02-05T00:36:22;0.00;90.80
12819;DHT22;6474;53.474;9.894;2023-02-05T00:38:50;0.00;90.90
12819;DHT22;6474;53.474;9.894;2023-02-05T00:41:19;-0.10;90.80
12819;DHT22;6474;53.474;9.894;2023-02-05T00:43:46;-0.10;90.80
12819;DHT22;6474;53.474;9.894;2023-02-05T00:46:16;-0.10;90.80
12819;DHT22;6474;53.474;9.894;2023-02-05T00:48:44;0.00;90.90
12819;DHT22;6474;53.474;9.894;2023-02-05T00:51:11;-0.10;90.80
12819;DHT22;6474;53.474;9.894;2023-02-05T00:53:39;-0.10;90.80
12819;DHT22;6474;53.474;9.894;2023-02-05T00:56:07;-0.10;90.80
12819;DHT22;6474;53.474;9.894;2023-02-05T00:58:35;-0.10;90.80
12819;DHT22;6474;53.474;9.894;2023-02-05T01:01:04;-0.10;90.80
12819;DHT22;6474;53.474;9.894;2023-02-05T01:03:33;-0.10;90.70
12819;DHT22;6474;53.474;9.894;2023-02-05T01:06:01;-0.10;90.70
12819;DHT22;6474;53.474;9.894;2023-02-05T01:08:29;-0.10;90.80
12819;DHT22;6474;53.474;9.894;2023-02-05T01:10:58;-0.10;90.80
12819;DHT22;6474;53.474;9.894;2023-02-05T01:13:26;-0.20;90.80
12819;DHT22;6474;53.474;9.894;2023-02-05T01:15:54;-0.20;90.80
12819;DHT22;6474;53.474;9.894;2023-02-05T01:18:22;-0.20;91.10
12819;DHT22;6474;53.474;9.894;2023-02-05T01:20:51;-0.20;90.80
12819;DHT22;6474;53.474;9.894;2023-02-05T01:23:19;-0.20;90.80
12819;DHT22;6474;53.474;9.894;2023-02-05T01:25:47;-0.20;90.80
12819;DHT22;6474;53.474;9.894;2023-02-05T01:28:15;-0.20;90.80
12819;DHT22;6474;53.474;9.894;2023-02-05T01:30:46;-0.30;90.80
12819;DHT22;6474;53.474;9.894;2023-02-05T01:33:14;-0.30;90.80
12819;DHT22;6474;53.474;9.894;2023-02-05T01:35:42;-0.30;90.70
12819;DHT22;6474;53.474;9.894;2023-02-05T01:38:12;-0.20;90.80
12819;DHT22;6474;53.474;9.894;2023-02-05T01:40:40;-0.30;90.70
12819;DHT22;6474;53.474;9.894;2023-02-05T01:43:11;-0.30;90.70
12819;DHT22;6474;53.474;9.894;2023-02-05T01:45:47;-0.30;90.80
12819;DHT22;6474;53.474;9.894;2023-02-05T01:48:20;-0.30;90.80
12819;DHT22;6474;53.474;9.894;2023-02-05T01:50:51;-0.30;90.80
12819;DHT22;6474;53.474;9.894;2023-02-05T01:53:24;-0.30;90.80
12819;DHT22;6474;53.474;9.894;2023-02-05T01:55:55;-0.30;90.80
12819;DHT22;6474;53.474;9.894;2023-02-05T01:58:26;-0.30;90.90
12819;DHT22;6474;53.474;9.894;2023-02-05T02:00:56;-0.30;90.90
12819;DHT22;6474;53.474;9.894;2023-02-05T02:03:24;-0.30;90.90
12819;DHT22;6474;53.474;9.894;2023-02-05T02:05:54;-0.30;90.90
12819;DHT22;6474;53.474;9.894;2023-02-05T02:08:24;-0.30;90.90
12819;DHT22;6474;53.474;9.894;2023-02-05T02:10:56;-0.20;90.90
12819;DHT22;6474;53.474;9.894;2023-02-05T02:13:27;-0.20;90.90
12819;DHT22;6474;53.474;9.894;2023-02-05T02:15:56;-0.20;90.90
12819;DHT22;6474;53.474;9.894;2023-02-05T02:18:25;-0.20;90.90
12819;DHT22;6474;53.474;9.894;2023-02-05T02:21:27;-0.20;91.00
12819;DHT22;6474;53.474;9.894;2023-02-05T02:24:27;-0.20;91.10
12819;DHT22;6474;53.474;9.894;2023-02-05T02:27:09;-0.10;91.10
12819;DHT22;6474;53.474;9.894;2023-02-05T02:29:47;-0.10;91.10
12819;DHT22;6474;53.474;9.894;2023-02-05T02:32:22;0.00;91.10
12819;DHT22;6474;53.474;9.894;2023-02-05T02:34:55;0.00;91.10
12819;DHT22;6474;53.474;9.894;2023-02-05T02:37:31;0.10;91.10
12819;DHT22;6474;53.474;9.894;2023-02-05T02:40:07;0.10;91.10
12819;DHT22;6474;53.474;9.894;2023-02-05T02:42:40;0.20;91.10
12819;DHT22;6474;53.474;9.894;2023-02-05T02:45:11;0.20;91.10
12819;DHT22;6474;53.474;9.894;2023-02-05T02:47:45;0.20;91.10
12819;DHT22;6474;53.474;9.894;2023-02-05T02:50:17;0.30;91.10
12819;DHT22;6474;53.474;9.894;2023-02-05T02:52:47;0.30;91.10
12819;DHT22;6474;53.474;9.894;2023-02-05T02:55:16;0.30;91.00
12819;DHT22;6474;53.474;9.894;2023-02-05T02:57:47;0.30;91.00
12819;DHT22;6474;53.474;9.894;2023-02-05T03:00:21;0.30;91.00
12819;DHT22;6474;53.474;9.894;2023-02-05T03:02:54;0.30;91.00
12819;DHT22;6474;53.474;9.894;2023-02-05T03:05:23;0.30;91.00
12819;DHT22;6474;53.474;9.894;2023-02-05T03:07:56;0.30;91.00
12819;DHT22;6474;53.474;9.894;2023-02-05T03:10:32;0.30;91.00
12819;DHT22;6474;53.474;9.894;2023-02-05T03:13:01;0.30;91.00
12819;DHT22;6474;53.474;9.894;2023-02-05T03:15:30;0.30;91.00
12819;DHT22;6474;53.474;9.894;2023-02-05T03:17:59;0.30;91.00
12819;DHT22;6474;53.474;9.894;2023-02-05T03:20:30;0.30;91.00
12819;DHT22;6474;53.474;9.894;2023-02-05T03:22:59;0.30;91.00
12819;DHT22;6474;53.474;9.894;2023-02-05T03:25:29;0.30;91.00
12819;DHT22;6474;53.474;9.894;2023-02-05T03:27:57;0.30;91.00
12819;DHT22;6474;53.474;9.894;2023-02-05T03:30:31;0.30;91.00
12819;DHT22;6474;53.474;9.894;2023-02-05T03:33:05;0.30;91.00
12819;DHT22;6474;53.474;9.894;2023-02-05T03:35:46;0.20;90.90
12819;DHT22;6474;53.474;9.894;2023-02-05T03:38:38;0.20;91.00
12819;DHT22;6474;53.474;9.894;2023-02-05T03:41:17;0.20;91.00
12819;DHT22;6474;53.474;9.894;2023-02-05T03:43:57;0.20;91.00
12819;DHT22;6474;53.474;9.894;2023-02-05T03:46:37;0.20;91.00
12819;DHT22;6474;53.474;9.894;2023-02-05T03:49:16;0.20;91.00
12819;DHT22;6474;53.474;9.894;2023-02-05T03:51:50;0.20;91.00
12819;DHT22;6474;53.474;9.894;2023-02-05T03:54:24;0.20;91.00
12819;DHT22;6474;53.474;9.894;2023-02-05T03:56:58;0.20;91.10
12819;DHT22;6474;53.474;9.894;2023-02-05T03:59:28;0.20;91.10
12819;DHT22;6474;53.474;9.894;2023-02-05T04:01:58;0.20;91.10
12819;DHT22;6474;53.474;9.894;2023-02-05T04:04:26;0.20;91.10
12819;DHT22;6474;53.474;9.894;2023-02-05T04:06:54;0.30;91.10
12819;DHT22;6474;53.474;9.894;2023-02-05T04:09:22;0.30;91.10
12819;DHT22;6474;53.474;9.894;2023-02-05T04:11:50;0.30;91.20
12819;DHT22;6474;53.474;9.894;2023-02-05T04:14:18;0.30;91.20
12819;DHT22;6474;53.474;9.894;2023-02-05T04:16:45;0.40;91.20
12819;DHT22;6474;53.474;9.894;2023-02-05T04:19:14;0.40;91.30
12819;DHT22;6474;53.474;9.894;2023-02-05T04:21:42;0.40;91.20
12819;DHT22;6474;53.474;9.894;2023-02-05T04:24:10;0.40;91.20
12819;DHT22;6474;53.474;9.894;2023-02-05T04:26:38;0.40;91.20
12819;DHT22;6474;53.474;9.894;2023-02-05T04:29:06;0.50;91.20
12819;DHT22;6474;53.474;9.894;2023-02-05T04:31:34;0.50;91.20
12819;DHT22;6474;53.474;9.894;2023-02-05T04:34:03;0.50;91.20
12819;DHT22;6474;53.474;9.894;2023-02-05T04:36:32;0.60;91.20
12819;DHT22;6474;53.474;9.894;2023-02-05T04:39:00;0.50;91.20
12819;DHT22;6474;53.474;9.894;2023-02-05T04:41:28;0.60;91.20
12819;DHT22;6474;53.474;9.894;2023-02-05T04:43:55;0.60;91.20
12819;DHT22;6474;53.474;9.894;2023-02-05T04:46:23;0.60;91.20
12819;DHT22;6474;53.474;9.894;2023-02-05T04:48:51;0.60;91.20
12819;DHT22;6474;53.474;9.894;2023-02-05T04:51:19;0.60;91.20
12819;DHT22;6474;53.474;9.894;2023-02-05T04:53:48;0.60;91.20
12819;DHT22;6474;53.474;9.894;2023-02-05T04:56:16;0.60;91.20
12819;DHT22;6474;53.474;9.894;2023-02-05T04:58:44;0.60;91.20
12819;DHT22;6474;53.474;9.894;2023-02-05T05:01:14;0.60;91.20
12819;DHT22;6474;53.474;9.894;2023-02-05T05:03:42;0.60;91.20
12819;DHT22;6474;53.474;9.894;2023-02-05T05:06:10;0.60;91.20
12819;DHT22;6474;53.474;9.894;2023-02-05T05:08:38;0.60;91.20
12819;DHT22;6474;53.474;9.894;2023-02-05T05:11:09;0.60;91.20
12819;DHT22;6474;53.474;9.894;2023-02-05T05:13:38;0.60;91.20
12819;DHT22;6474;53.474;9.894;2023-02-05T05:16:06;0.70;91.20
12819;DHT22;6474;53.474;9.894;2023-02-05T05:18:34;0.60;91.20
12819;DHT22;6474;53.474;9.894;2023-02-05T05:21:03;0.60;91.20
12819;DHT22;6474;53.474;9.894;2023-02-05T05:23:32;0.60;91.20
12819;DHT22;6474;53.474;9.894;2023-02-05T05:26:03;0.70;91.20
12819;DHT22;6474;53.474;9.894;2023-02-05T05:28:32;0.60;91.10
12819;DHT22;6474;53.474;9.894;2023-02-05T05:31:05;0.60;91.10
12819;DHT22;6474;53.474;9.894;2023-02-05T05:33:34;0.60;91.20
12819;DHT22;6474;53.474;9.894;2023-02-05T05:36:03;0.60;91.20
12819;DHT22;6474;53.474;9.894;2023-02-05T05:38:31;0.60;91.20
12819;DHT22;6474;53.474;9.894;2023-02-05T05:40:59;0.60;91.20
12819;DHT22;6474;53.474;9.894;2023-02-05T05:43:46;0.60;91.20
12819;DHT22;6474;53.474;9.894;2023-02-05T05:46:15;0.60;91.20
12819;DHT22;6474;53.474;9.894;2023-02-05T05:48:48;0.70;91.30
12819;DHT22;6474;53.474;9.894;2023-02-05T05:51:16;0.60;91.20
12819;DHT22;6474;53.474;9.894;2023-02-05T05:53:45;0.60;91.20
12819;DHT22;6474;53.474;9.894;2023-02-05T05:56:13;0.70;91.30
12819;DHT22;6474;53.474;9.894;2023-02-05T05:58:42;0.70;91.30
12819;DHT22;6474;53.474;9.894;2023-02-05T06:01:13;0.70;91.30
12819;DHT22;6474;53.474;9.894;2023-02-05T06:03:41;0.70;91.30
12819;DHT22;6474;53.474;9.894;2023-02-05T06:06:11;0.70;91.20
12819;DHT22;6474;53.474;9.894;2023-02-05T06:08:39;0.80;91.30
12819;DHT22;6474;53.474;9.894;2023-02-05T06:11:06;0.80;91.30
12819;DHT22;6474;53.474;9.894;2023-02-05T06:13:34;0.80;91.30
12819;DHT22;6474;53.474;9.894;2023-02-05T06:16:03;0.80;91.30
12819;DHT22;6474;53.474;9.894;2023-02-05T06:18:32;0.80;91.20
12819;DHT22;6474;53.474;9.894;2023-02-05T06:21:00;0.70;91.20
12819;DHT22;6474;53.474;9.894;2023-02-05T06:23:29;0.70;91.20
12819;DHT22;6474;53.474;9.894;2023-02-05T06:25:56;0.70;91.10
12819;DHT22;6474;53.474;9.894;2023-02-05T06:28:24;0.70;91.20
12819;DHT22;6474;53.474;9.894;2023-02-05T06:30:52;0.70;91.20
12819;DHT22;6474;53.474;9.894;2023-02-05T06:33:20;0.70;91.20
12819;DHT22;6474;53.474;9.894;2023-02-05T06:35:50;0.70;91.20
12819;DHT22;6474;53.474;9.894;2023-02-05T06:38:17;0.60;91.10
12819;DHT22;6474;53.474;9.894;2023-02-05T06:40:46;0.70;91.20
12819;DHT22;6474;53.474;9.894;2023-02-05T06:43:14;0.70;91.20
12819;DHT22;6474;53.474;9.894;2023-02-05T06:45:42;0.70;91.20
12819;DHT22;6474;53.474;9.894;2023-02-05T06:48:10;0.70;91.20
12819;DHT22;6474;53.474;9.894;2023-02-05T06:50:38;0.70;91.20
12819;DHT22;6474;53.474;9.894;2023-02-05T06:53:07;0.70;91.20
12819;DHT22;6474;53.474;9.894;2023-02-05T06:55:37;0.70;91.20
12819;DHT22;6474;53.474;9.894;2023-02-05T06:58:05;0.70;91.20
12819;DHT22;6474;53.474;9.894;2023-02-05T07:00:34;0.70;91.20
12819;DHT22;6474;53.474;9.894;2023-02-05T07:03:03;0.70;91.20
12819;DHT22;6474;53.474;9.894;2023-02-05T07:05:32;0.70;91.20
12819;DHT22;6474;53.474;9.894;2023-02-05T07:08:00;0.70;91.20
12819;DHT22;6474;53.474;9.894;2023-02-05T07:10:31;0.80;91.30
12819;DHT22;6474;53.474;9.894;2023-02-05T07:12:59;0.80;91.20
12819;DHT22;6474;53.474;9.894;2023-02-05T07:15:27;0.80;91.20
12819;DHT22;6474;53.474;9.894;2023-02-05T07:17:56;0.80;91.20
12819;DHT22;6474;53.474;9.894;2023-02-05T07:20:24;0.80;91.30
12819;DHT22;6474;53.474;9.894;2023-02-05T07:22:52;0.80;91.30
12819;DHT22;6474;53.474;9.894;2023-02-05T07:25:20;0.80;91.30
12819;DHT22;6474;53.474;9.894;2023-02-05T07:27:49;0.80;91.30
12819;DHT22;6474;53.474;9.894;2023-02-05T07:30:17;0.80;91.20
12819;DHT22;6474;53.474;9.894;2023-02-05T07:32:45;0.80;91.20
12819;DHT22;6474;53.474;9.894;2023-02-05T07:35:12;0.80;91.20
12819;DHT22;6474;53.474;9.894;2023-02-05T07:37:41;0.80;91.20
12819;DHT22;6474;53.474;9.894;2023-02-05T07:40:09;0.80;91.20
12819;DHT22;6474;53.474;9.894;2023-02-05T07:42:37;0.80;91.20
12819;DHT22;6474;53.474;9.894;2023-02-05T07:45:07;0.80;91.20
12819;DHT22;6474;53.474;9.894;2023-02-05T07:47:36;0.80;91.20
12819;DHT22;6474;53.474;9.894;2023-02-05T07:50:05;0.80;91.10
12819;DHT22;6474;53.474;9.894;2023-02-05T07:52:33;0.80;91.20
12819;DHT22;6474;53.474;9.894;2023-02-05T07:55:01;0.90;91.20
12819;DHT22;6474;53.474;9.894;2023-02-05T07:57:30;0.90;91.20
12819;DHT22;6474;53.474;9.894;2023-02-05T07:59:58;0.90;91.20
12819;DHT22;6474;53.474;9.894;2023-02-05T08:02:27;0.90;91.10
12819;DHT22;6474;53.474;9.894;2023-02-05T08:04:55;0.90;91.10
12819;DHT22;6474;53.474;9.894;2023-02-05T08:07:23;0.90;91.10
12819;DHT22;6474;53.474;9.894;2023-02-05T08:09:51;0.90;91.10
12819;DHT22;6474;53.474;9.894;2023-02-05T08:12:19;0.90;91.10
12819;DHT22;6474;53.474;9.894;2023-02-05T08:14:46;0.90;91.10
12819;DHT22;6474;53.474;9.894;2023-02-05T08:17:14;0.90;91.10
12819;DHT22;6474;53.474;9.894;2023-02-05T08:19:44;1.00;91.20
12819;DHT22;6474;53.474;9.894;2023-02-05T08:22:12;1.00;91.30
12819;DHT22;6474;53.474;9.894;2023-02-05T08:24:40;1.10;91.30
12819;DHT22;6474;53.474;9.894;2023-02-05T08:27:08;1.10;91.30
12819;DHT22;6474;53.474;9.894;2023-02-05T08:29:35;1.10;91.40
12819;DHT22;6474;53.474;9.894;2023-02-05T08:32:03;1.20;91.40
12819;DHT22;6474;53.474;9.894;2023-02-05T08:34:31;1.20;91.40
12819;DHT22;6474;53.474;9.894;2023-02-05T08:37:01;1.20;91.40
12819;DHT22;6474;53.474;9.894;2023-02-05T08:39:29;1.30;91.40
12819;DHT22;6474;53.474;9.894;2023-02-05T08:41:57;1.30;91.40
12819;DHT22;6474;53.474;9.894;2023-02-05T08:44:28;1.30;91.40
12819;DHT22;6474;53.474;9.894;2023-02-05T08:46:56;1.40;91.50
12819;DHT22;6474;53.474;9.894;2023-02-05T08:49:24;1.40;91.60
12819;DHT22;6474;53.474;9.894;2023-02-05T08:51:52;1.50;91.50
12819;DHT22;6474;53.474;9.894;2023-02-05T08:54:21;1.50;91.50
12819;DHT22;6474;53.474;9.894;2023-02-05T08:56:50;1.50;91.40
12819;DHT22;6474;53.474;9.894;2023-02-05T08:59:18;1.50;91.50
12819;DHT22;6474;53.474;9.894;2023-02-05T09:01:47;1.60;91.50
12819;DHT22;6474;53.474;9.894;2023-02-05T09:04:17;1.60;91.50
12819;DHT22;6474;53.474;9.894;2023-02-05T09:06:46;1.70;91.50
12819;DHT22;6474;53.474;9.894;2023-02-05T09:09:14;1.60;91.50
12819;DHT22;6474;53.474;9.894;2023-02-05T09:11:44;1.70;91.50
12819;DHT22;6474;53.474;9.894;2023-02-05T09:14:13;1.70;91.60
12819;DHT22;6474;53.474;9.894;2023-02-05T09:16:41;1.70;91.60
12819;DHT22;6474;53.474;9.894;2023-02-05T09:19:09;1.70;91.60
12819;DHT22;6474;53.474;9.894;2023-02-05T09:21:37;1.80;91.60
12819;DHT22;6474;53.474;9.894;2023-02-05T09:24:05;1.80;91.60
12819;DHT22;6474;53.474;9.894;2023-02-05T09:26:33;1.80;91.60
12819;DHT22;6474;53.474;9.894;2023-02-05T09:29:04;1.80;91.50
12819;DHT22;6474;53.474;9.894;2023-02-05T09:31:32;1.90;91.60
12819;DHT22;6474;53.474;9.894;2023-02-05T09:34:01;1.90;91.60
12819;DHT22;6474;53.474;9.894;2023-02-05T09:36:29;1.90;91.60
12819;DHT22;6474;53.474;9.894;2023-02-05T09:38:56;2.00;91.70
12819;DHT22;6474;53.474;9.894;2023-02-05T09:41:45;2.00;91.70
12819;DHT22;6474;53.474;9.894;2023-02-05T09:44:21;2.00;91.60
12819;DHT22;6474;53.474;9.894;2023-02-05T09:46:58;2.00;91.60
12819;DHT22;6474;53.474;9.894;2023-02-05T09:49:31;2.00;91.60
12819;DHT22;6474;53.474;9.894;2023-02-05T09:52:07;2.10;91.70
12819;DHT22;6474;53.474;9.894;2023-02-05T09:54:41;2.10;91.80
12819;DHT22;6474;53.474;9.894;2023-02-05T09:57:13;2.20;91.80
12819;DHT22;6474;53.474;9.894;2023-02-05T09:59:45;2.20;91.80
12819;DHT22;6474;53.474;9.894;2023-02-05T10:02:21;2.20;91.80
12819;DHT22;6474;53.474;9.894;2023-02-05T10:04:51;2.20;91.80
12819;DHT22;6474;53.474;9.894;2023-02-05T10:07:41;2.20;91.80
12819;DHT22;6474;53.474;9.894;2023-02-05T10:10:21;2.30;91.90
12819;DHT22;6474;53.474;9.894;2023-02-05T10:13:14;2.30;91.80
12819;DHT22;6474;53.474;9.894;2023-02-05T10:16:02;2.30;91.80
12819;DHT22;6474;53.474;9.894;2023-02-05T10:18:42;2.30;91.80
12819;DHT22;6474;53.474;9.894;2023-02-05T10:21:26;2.30;91.90
12819;DHT22;6474;53.474;9.894;2023-02-05T10:24:11;2.40;91.90
12819;DHT22;6474;53.474;9.894;2023-02-05T10:26:47;2.40;91.90
12819;DHT22;6474;53.474;9.894;2023-02-05T10:29:24;2.50;92.00
12819;DHT22;6474;53.474;9.894;2023-02-05T10:32:05;2.50;92.00
12819;DHT22;6474;53.474;9.894;2023-02-05T10:34:47;2.50;92.00
12819;DHT22;6474;53.474;9.894;2023-02-05T10:37:17;2.60;92.00
12819;DHT22;6474;53.474;9.894;2023-02-05T10:39:46;2.60;92.00
12819;DHT22;6474;53.474;9.894;2023-02-05T10:42:23;2.60;91.90
12819;DHT22;6474;53.474;9.894;2023-02-05T10:44:59;2.70;92.00
12819;DHT22;6474;53.474;9.894;2023-02-05T10:47:52;2.70;92.00
12819;DHT22;6474;53.474;9.894;2023-02-05T10:50:25;2.70;92.00
12819;DHT22;6474;53.474;9.894;2023-02-05T10:52:55;2.80;92.00
12819;DHT22;6474;53.474;9.894;2023-02-05T10:55:23;2.80;92.00
12819;DHT22;6474;53.474;9.894;2023-02-05T10:57:53;2.80;92.00
12819;DHT22;6474;53.474;9.894;2023-02-05T11:00:21;2.80;92.00
12819;DHT22;6474;53.474;9.894;2023-02-05T11:02:57;2.90;92.10
12819;DHT22;6474;53.474;9.894;2023-02-05T11:05:30;2.90;92.10
12819;DHT22;6474;53.474;9.894;2023-02-05T11:08:00;2.90;92.10
12819;DHT22;6474;53.474;9.894;2023-02-05T11:10:31;2.90;92.00
12819;DHT22;6474;53.474;9.894;2023-02-05T11:13:04;2.90;92.30
12819;DHT22;6474;53.474;9.894;2023-02-05T11:15:52;2.90;92.10
12819;DHT22;6474;53.474;9.894;2023-02-05T11:18:25;3.00;92.10
12819;DHT22;6474;53.474;9.894;2023-02-05T11:20:57;3.00;92.10
12819;DHT22;6474;53.474;9.894;2023-02-05T11:23:27;3.00;92.10
12819;DHT22;6474;53.474;9.894;2023-02-05T11:25:58;3.00;92.10
12819;DHT22;6474;53.474;9.894;2023-02-05T11:28:28;3.10;92.20
12819;DHT22;6474;53.474;9.894;2023-02-05T11:30:56;3.10;92.20
12819;DHT22;6474;53.474;9.894;2023-02-05T11:33:30;3.10;92.10
12819;DHT22;6474;53.474;9.894;2023-02-05T11:36:00;3.20;92.10
12819;DHT22;6474;53.474;9.894;2023-02-05T11:38:34;3.20;92.10
12819;DHT22;6474;53.474;9.894;2023-02-05T11:41:09;3.20;92.10
12819;DHT22;6474;53.474;9.894;2023-02-05T11:43:39;3.30;92.10
12819;DHT22;6474;53.474;9.894;2023-02-05T11:46:09;3.30;92.10
12819;DHT22;6474;53.474;9.894;2023-02-05T11:48:44;3.30;92.20
12819;DHT22;6474;53.474;9.894;2023-02-05T11:51:27;3.30;92.20
12819;DHT22;6474;53.474;9.894;2023-02-05T11:53:57;3.40;92.20
12819;DHT22;6474;53.474;9.894;2023-02-05T11:56:27;3.40;92.20
12819;DHT22;6474;53.474;9.894;2023-02-05T11:58:59;3.40;92.20
12819;DHT22;6474;53.474;9.894;2023-02-05T12:01:30;3.50;92.20
12819;DHT22;6474;53.474;9.894;2023-02-05T12:04:13;3.50;92.20
12819;DHT22;6474;53.474;9.894;2023-02-05T12:06:47;3.50;92.20
12819;DHT22;6474;53.474;9.894;2023-02-05T12:09:20;3.60;92.20
12819;DHT22;6474;53.474;9.894;2023-02-05T12:11:58;3.60;92.10
12819;DHT22;6474;53.474;9.894;2023-02-05T12:14:42;3.50;92.10
12819;DHT22;6474;53.474;9.894;2023-02-05T12:17:26;3.50;92.10
12819;DHT22;6474;53.474;9.894;2023-02-05T12:20:10;3.40;92.10
12819;DHT22;6474;53.474;9.894;2023-02-05T12:22:57;3.50;92.20
12819;DHT22;6474;53.474;9.894;2023-02-05T12:25:32;3.50;92.30
12819;DHT22;6474;53.474;9.894;2023-02-05T12:28:11;3.50;92.30
12819;DHT22;6474;53.474;9.894;2023-02-05T12:30:53;3.50;92.20
12819;DHT22;6474;53.474;9.894;2023-02-05T12:33:43;3.50;92.20
12819;DHT22;6474;53.474;9.894;2023-02-05T12:36:29;3.50;92.20
12819;DHT22;6474;53.474;9.894;2023-02-05T12:39:09;3.50;92.20
12819;DHT22;6474;53.474;9.894;2023-02-05T12:41:48;3.50;92.20
12819;DHT22;6474;53.474;9.894;2023-02-05T12:44:28;3.50;92.20
12819;DHT22;6474;53.474;9.894;2023-02-05T12:47:09;3.50;92.30
12819;DHT22;6474;53.474;9.894;2023-02-05T12:49:55;3.50;92.30
12819;DHT22;6474;53.474;9.894;2023-02-05T12:52:52;3.50;92.30
12819;DHT22;6474;53.474;9.894;2023-02-05T12:55:31;3.60;92.20
12819;DHT22;6474;53.474;9.894;2023-02-05T12:58:04;3.60;92.20
12819;DHT22;6474;53.474;9.894;2023-02-05T13:00:38;3.60;92.20
12819;DHT22;6474;53.474;9.894;2023-02-05T13:03:14;3.70;92.20
12819;DHT22;6474;53.474;9.894;2023-02-05T13:05:48;3.70;92.20
12819;DHT22;6474;53.474;9.894;2023-02-05T13:08:24;3.70;92.20
12819;DHT22;6474;53.474;9.894;2023-02-05T13:11:00;3.70;92.20
12819;DHT22;6474;53.474;9.894;2023-02-05T13:13:33;3.70;92.20
12819;DHT22;6474;53.474;9.894;2023-02-05T13:16:04;3.70;92.20
12819;DHT22;6474;53.474;9.894;2023-02-05T13:18:36;3.70;92.20
12819;DHT22;6474;53.474;9.894;2023-02-05T13:21:09;3.70;92.20
12819;DHT22;6474;53.474;9.894;2023-02-05T13:24:02;3.60;92.10
12819;DHT22;6474;53.474;9.894;2023-02-05T13:26:48;3.70;92.20
12819;DHT22;6474;53.474;9.894;2023-02-05T13:29:43;3.70;92.20
12819;DHT22;6474;53.474;9.894;2023-02-05T13:32:20;3.70;92.30
12819;DHT22;6474;53.474;9.894;2023-02-05T13:34:50;3.70;92.30
12819;DHT22;6474;53.474;9.894;2023-02-05T13:37:33;3.70;92.20
12819;DHT22;6474;53.474;9.894;2023-02-05T13:40:30;3.80;92.30
12819;DHT22;6474;53.474;9.894;2023-02-05T13:43:25;3.80;92.30
12819;DHT22;6474;53.474;9.894;2023-02-05T13:46:15;3.90;92.30
12819;DHT22;6474;53.474;9.894;2023-02-05T13:52:17;3.90;92.20
12819;DHT22;6474;53.474;9.894;2023-02-05T13:55:27;3.90;92.20
12819;DHT22;6474;53.474;9.894;2023-02-05T13:58:12;3.80;92.20
12819;DHT22;6474;53.474;9.894;2023-02-05T14:00:50;3.80;92.20
12819;DHT22;6474;53.474;9.894;2023-02-05T14:03:25;3.80;92.20
12819;DHT22;6474;53.474;9.894;2023-02-05T14:05:55;3.80;92.10
12819;DHT22;6474;53.474;9.894;2023-02-05T14:08:26;3.80;92.10
12819;DHT22;6474;53.474;9.894;2023-02-05T14:10:57;3.70;92.00
12819;DHT22;6474;53.474;9.894;2023-02-05T14:13:29;3.60;92.00
12819;DHT22;6474;53.474;9.894;2023-02-05T14:16:31;3.60;92.00
12819;DHT22;6474;53.474;9.894;2023-02-05T14:19:13;3.60;92.00
12819;DHT22;6474;53.474;9.894;2023-02-05T14:21:56;3.50;92.00
12819;DHT22;6474;53.474;9.894;2023-02-05T14:24:27;3.50;92.00
12819;DHT22;6474;53.474;9.894;2023-02-05T14:33:36;3.50;92.10
12819;DHT22;6474;53.474;9.894;2023-02-05T14:39:24;3.50;92.00
12819;DHT22;6474;53.474;9.894;2023-02-05T14:41:55;3.50;92.00
12819;DHT22;6474;53.474;9.894;2023-02-05T14:44:27;3.50;92.00
12819;DHT22;6474;53.474;9.894;2023-02-05T14:46:59;3.50;92.00
12819;DHT22;6474;53.474;9.894;2023-02-05T14:49:35;3.50;92.00
12819;DHT22;6474;53.474;9.894;2023-02-05T14:52:16;3.50;91.90
12819;DHT22;6474;53.474;9.894;2023-02-05T14:54:47;3.50;91.90
12819;DHT22;6474;53.474;9.894;2023-02-05T14:57:21;3.50;92.00
12819;DHT22;6474;53.474;9.894;2023-02-05T14:59:53;3.40;91.90
12819;DHT22;6474;53.474;9.894;2023-02-05T15:02:46;3.40;91.90
12819;DHT22;6474;53.474;9.894;2023-02-05T15:05:19;3.40;91.90
12819;DHT22;6474;53.474;9.894;2023-02-05T15:07:52;3.40;91.90
12819;DHT22;6474;53.474;9.894;2023-02-05T15:10:28;3.30;91.80
12819;DHT22;6474;53.474;9.894;2023-02-05T15:13:02;3.30;91.80
12819;DHT22;6474;53.474;9.894;2023-02-05T15:15:35;3.30;91.80
12819;DHT22;6474;53.474;9.894;2023-02-05T15:18:11;3.30;91.80
12819;DHT22;6474;53.474;9.894;2023-02-05T15:20:44;3.30;91.80
12819;DHT22;6474;53.474;9.894;2023-02-05T15:23:19;3.30;91.80
12819;DHT22;6474;53.474;9.894;2023-02-05T15:25:57;3.30;91.80
12819;DHT22;6474;53.474;9.894;2023-02-05T15:28:31;3.20;91.80
12819;DHT22;6474;53.474;9.894;2023-02-05T15:31:18;3.30;91.80
12819;DHT22;6474;53.474;9.894;2023-02-05T15:33:55;3.20;91.80
12819;DHT22;6474;53.474;9.894;2023-02-05T15:36:31;3.20;92.10
12819;DHT22;6474;53.474;9.894;2023-02-05T15:39:08;3.20;91.80
12819;DHT22;6474;53.474;9.894;2023-02-05T15:41:42;3.20;91.80
12819;DHT22;6474;53.474;9.894;2023-02-05T15:44:19;3.20;91.80
12819;DHT22;6474;53.474;9.894;2023-02-05T15:46:48;3.20;91.80
12819;DHT22;6474;53.474;9.894;2023-02-05T15:49:17;3.20;91.80
12819;DHT22;6474;53.474;9.894;2023-02-05T15:51:47;3.20;91.80
12819;DHT22;6474;53.474;9.894;2023-02-05T15:54:18;3.20;91.80
12819;DHT22;6474;53.474;9.894;2023-02-05T15:56:49;3.20;91.80
12819;DHT22;6474;53.474;9.894;2023-02-05T15:59:20;3.10;91.70
12819;DHT22;6474;53.474;9.894;2023-02-05T16:01:58;3.10;91.80
12819;DHT22;6474;53.474;9.894;2023-02-05T16:04:30;3.20;91.80
12819;DHT22;6474;53.474;9.894;2023-02-05T16:07:00;3.10;91.70
12819;DHT22;6474;53.474;9.894;2023-02-05T16:09:29;3.10;91.70
12819;DHT22;6474;53.474;9.894;2023-02-05T16:12:09;3.10;91.70
12819;DHT22;6474;53.474;9.894;2023-02-05T16:14:38;3.10;91.70
12819;DHT22;6474;53.474;9.894;2023-02-05T16:17:09;3.10;91.70
12819;DHT22;6474;53.474;9.894;2023-02-05T16:19:42;3.10;91.70
12819;DHT22;6474;53.474;9.894;2023-02-05T16:22:22;3.00;91.70
12819;DHT22;6474;53.474;9.894;2023-02-05T16:24:53;3.00;91.70
12819;DHT22;6474;53.474;9.894;2023-02-05T16:27:31;3.00;91.70
12819;DHT22;6474;53.474;9.894;2023-02-05T16:30:04;3.00;91.70
12819;DHT22;6474;53.474;9.894;2023-02-05T16:32:37;3.00;91.70
12819;DHT22;6474;53.474;9.894;2023-02-05T16:35:16;3.00;91.70
12819;DHT22;6474;53.474;9.894;2023-02-05T16:37:49;3.00;91.70
12819;DHT22;6474;53.474;9.894;2023-02-05T16:40:29;3.00;91.70
12819;DHT22;6474;53.474;9.894;2023-02-05T16:43:17;3.00;91.70
12819;DHT22;6474;53.474;9.894;2023-02-05T16:46:05;3.00;91.70
12819;DHT22;6474;53.474;9.894;2023-02-05T16:48:50;3.00;91.70